Berlin Dahlem, Germany

1:52 PM CEST on September 18, 2014 (GMT +0200)
Tiergarten | Change Station
CLOSE
Current Station
Personal Weather Station
Location: Berlin, BERLIN
Elevation: 121 ft
Nearby Weather Stations

Elev 121 ft 52.52 °N, 13.32 °E | Updated 2 minutes ago

Clear
Clear
70.0 °F
Feels Like 70.0 °F
N
-
Wind Variable Wind from North

Today
High -- | Low -- °F
--% Chance of Precip.
Yesterday
High -- | Low -- °F
Precip. -- in
6:45 AM 7:15 PM
Waning Crescent, 27% visible
Pressure 29.95 in
Visibility -9999.0 miles
Clouds
Dew Point 54 °F
Humidity 61%
Rainfall -999.00 in
Snow Depth Not available.
UV Not available.
Pollen Not available.
Air Quality Not available.
Flu Activity Not available.
METAR EDDT 181120Z 09013KT CAVOK 23/10 Q1014 NOSIG

More Conditions Fewer Conditions

Pressure 29.95 in
Visibility -9999.0 miles
Clouds
Dew Point 54 °F
Humidity 61%
Rainfall -999.00 in
Snow Depth Not available.
UV Not available.
Pollen Not available.
Air Quality Not available.
Flu Activity Not available.
METAR EDDT 181120Z 09013KT CAVOK 23/10 Q1014 NOSIG

More Conditions Fewer Conditions

10-Day Weather Forecast

Almanac

Astronomy

Sep. 18, 2014 Rise Set
Actual Time 6:45 AM CEST 7:15 PM CEST
Civil Twilight 6:11 AM CEST 7:49 PM CEST
Nautical Twilight 5:30 AM CEST 8:30 PM CEST
Astronomical Twilight 4:47 AM CEST 9:13 PM CEST
Moon 12:51 AM CEST 4:23 PM CEST
Length of Visible Light 13h 38m
Length of Day
12h 29m
Tomorrow will be 4m 2s shorter.
Waning Crescent, 27% of the Moon is Illuminated
Today
Waning Crescent
Sep 24
New
Oct 1
First Quarter
Oct 8
Full
Oct 15
Last Quarter

Yesterday's Extremes

Country Highs Country Lows

Community

WunderPhotos

Upload Photos

1,754,324 photos uploaded!

Nearby

Snow Depth

Not available.

Earthquake Activity

City Distance Mag. Time & Date
No recent earthquake activity has been reported nearby.
Minimum magnitude displayed is 2.5.

Coastal Water Temperatures

Place Temperature
No Stations Reporting

Nearby Weather Stations